createdAt,value
2022-11-29T00:00:30.615Z,28.48
2022-11-29T00:03:32.845Z,30.38
2022-11-29T00:06:35.274Z,30.48
2022-11-29T00:09:36.635Z,30.40
2022-11-29T00:12:38.121Z,29.85
2022-11-29T00:15:39.846Z,26.10
2022-11-29T00:18:41.183Z,28.60
2022-11-29T00:21:42.537Z,30.63
2022-11-29T00:24:44.276Z,28.23
2022-11-29T00:27:46.327Z,29.55
2022-11-29T00:30:47.738Z,29.70
2022-11-29T00:33:50.172Z,29.58
2022-11-29T00:36:51.673Z,30.92
2022-11-29T00:39:53.049Z,31.13
2022-11-29T00:42:54.377Z,33.15
2022-11-29T00:45:55.743Z,31.92
2022-11-29T00:48:57.076Z,32.88
2022-11-29T00:51:58.429Z,32.78
2022-11-29T00:54:59.753Z,34.20
2022-11-29T00:58:01.133Z,31.13
2022-11-29T01:01:02.960Z,32.45
2022-11-29T01:04:04.517Z,31.65
2022-11-29T01:07:05.878Z,30.50
2022-11-29T01:10:07.898Z,32.10
2022-11-29T01:13:10.096Z,33.65
2022-11-29T01:16:11.939Z,33.55
2022-11-29T01:19:13.250Z,38.15
2022-11-29T01:22:14.673Z,36.17
2022-11-29T01:25:16.298Z,35.63
2022-11-29T01:28:17.778Z,39.47
2022-11-29T01:31:39.350Z,37.42
2022-11-29T01:34:40.750Z,36.25
2022-11-29T01:37:42.170Z,37.85
2022-11-29T01:40:43.939Z,38.40
2022-11-29T01:44:12.832Z,42.40
2022-11-29T01:47:14.192Z,41.80
2022-11-29T01:50:15.683Z,42.50
2022-11-29T01:53:17.338Z,38.92
2022-11-29T01:56:18.777Z,45.40
2022-11-29T01:59:26.876Z,41.67
2022-11-29T02:02:32.474Z,40.22
2022-11-29T02:05:34.040Z,44.33
2022-11-29T02:08:41.211Z,45.75
2022-11-29T02:11:52.054Z,47.65
2022-11-29T02:15:28.947Z,47.33
2022-11-29T02:18:59.980Z,47.00
2022-11-29T02:22:29.549Z,44.35
2022-11-29T02:25:39.576Z,47.15
2022-11-29T02:28:49.797Z,43.78
2022-11-29T02:32:15.462Z,44.63
2022-11-29T02:35:25.921Z,47.33
2022-11-29T02:38:47.412Z,49.80
2022-11-29T02:42:16.626Z,47.88
2022-11-29T02:45:43.090Z,42.28
2022-11-29T02:49:18.882Z,47.67
2022-11-29T02:52:38.850Z,46.67
2022-11-29T02:56:10.782Z,46.92
2022-11-29T02:59:34.302Z,47.25
2022-11-29T03:03:03.614Z,50.53
2022-11-29T03:06:30.498Z,47.60
2022-11-29T03:09:55.107Z,50.10
2022-11-29T03:12:57.816Z,51.13
2022-11-29T03:16:29.039Z,48.70
2022-11-29T03:19:45.812Z,53.38
2022-11-29T03:23:02.076Z,49.03
2022-11-29T03:26:11.077Z,53.28
2022-11-29T03:29:26.865Z,53.40
2022-11-29T03:32:49.238Z,55.42
2022-11-29T03:36:14.342Z,53.78
2022-11-29T03:39:27.560Z,54.60
2022-11-29T03:43:00.211Z,52.70
2022-11-29T03:46:29.150Z,49.88
2022-11-29T03:49:46.241Z,52.63
2022-11-29T03:52:52.052Z,53.05
2022-11-29T03:56:02.073Z,54.50
2022-11-29T03:59:22.101Z,59.13
2022-11-29T04:03:08.436Z,62.45
2022-11-29T04:06:23.017Z,64.10
2022-11-29T04:09:36.280Z,61.92
2022-11-29T04:13:02.949Z,58.67
2022-11-29T04:16:22.887Z,57.72
2022-11-29T04:19:42.090Z,56.55
2022-11-29T04:23:09.630Z,59.15
2022-11-29T04:26:42.749Z,60.15
2022-11-29T04:29:50.251Z,59.07
2022-11-29T04:33:16.720Z,63.50
2022-11-29T04:36:33.308Z,58.60
2022-11-29T04:40:09.042Z,56.17
2022-11-29T04:43:34.634Z,61.90
2022-11-29T04:46:50.926Z,58.17
2022-11-29T04:50:02.830Z,59.88
2022-11-29T04:53:29.994Z,60.88
2022-11-29T04:56:45.394Z,60.38
2022-11-29T04:59:52.412Z,55.90
2022-11-29T05:03:07.482Z,61.17
2022-11-29T05:06:29.155Z,57.97
2022-11-29T05:10:09.008Z,59.20
2022-11-29T05:13:39.875Z,60.58
2022-11-29T05:17:12.264Z,57.92
2022-11-29T05:20:35.119Z,61.17
2022-11-29T05:23:55.069Z,52.45
2022-11-29T05:27:21.387Z,56.83
2022-11-29T05:30:25.434Z,62.17
2022-11-29T05:33:44.829Z,59.88
2022-11-29T05:37:23.734Z,57.20
2022-11-29T05:40:45.200Z,59.80
2022-11-29T05:44:11.309Z,62.78
2022-11-29T05:47:21.772Z,60.22
2022-11-29T05:50:33.137Z,60.42
2022-11-29T05:53:50.732Z,62.00
2022-11-29T05:57:10.061Z,62.28
2022-11-29T06:00:13.209Z,55.47
2022-11-29T06:03:23.004Z,62.22
2022-11-29T06:06:35.084Z,58.55
2022-11-29T06:10:08.805Z,58.63
2022-11-29T06:13:34.657Z,59.78
2022-11-29T06:17:23.148Z,61.45
2022-11-29T06:20:39.742Z,66.18
2022-11-29T06:24:05.642Z,56.40
2022-11-29T06:27:16.090Z,64.47
2022-11-29T06:30:22.720Z,60.13
2022-11-29T06:33:30.946Z,61.38
2022-11-29T06:36:42.138Z,63.28
2022-11-29T06:39:43.842Z,62.58
2022-11-29T06:42:45.171Z,57.42
2022-11-29T06:45:57.400Z,62.47
2022-11-29T06:49:17.367Z,61.15
2022-11-29T06:52:41.031Z,62.50
2022-11-29T06:55:52.707Z,60.88
2022-11-29T06:59:09.059Z,59.13
2022-11-29T07:02:45.761Z,57.58
2022-11-29T07:05:47.436Z,58.38
2022-11-29T07:08:56.776Z,63.35
2022-11-29T07:11:58.424Z,64.65
2022-11-29T07:15:00.065Z,60.25
2022-11-29T07:18:21.356Z,62.25
2022-11-29T07:21:33.286Z,58.85
2022-11-29T07:24:50.861Z,64.55
2022-11-29T07:28:50.993Z,62.47
2022-11-29T07:31:58.109Z,66.38
2022-11-29T07:35:50.201Z,65.93
2022-11-29T07:39:22.541Z,60.83
2022-11-29T07:42:39.230Z,64.72
2022-11-29T07:45:40.706Z,61.13
2022-11-29T07:48:42.111Z,69.80
2022-11-29T07:51:43.493Z,66.43
2022-11-29T07:54:45.101Z,68.53
2022-11-29T07:57:48.110Z,66.47
2022-11-29T08:00:49.582Z,68.35
2022-11-29T08:03:50.982Z,63.70
2022-11-29T08:06:52.312Z,69.40
2022-11-29T08:09:53.742Z,69.00
2022-11-29T08:12:55.106Z,71.82
2022-11-29T08:15:56.522Z,71.30
2022-11-29T08:18:58.019Z,61.47
2022-11-29T08:21:59.467Z,64.78
2022-11-29T08:25:00.849Z,64.72
2022-11-29T08:28:03.480Z,70.20
2022-11-29T08:31:07.368Z,66.70
2022-11-29T08:34:09.107Z,71.68
2022-11-29T08:37:10.597Z,73.05
2022-11-29T08:40:12.916Z,69.25
2022-11-29T08:43:14.292Z,66.05
2022-11-29T08:46:18.779Z,65.78
2022-11-29T08:49:20.549Z,64.88
2022-11-29T08:52:21.938Z,64.68
2022-11-29T08:55:25.741Z,62.95
2022-11-29T08:58:27.123Z,62.95
2022-11-29T09:01:28.491Z,67.50
2022-11-29T09:04:29.881Z,62.55
2022-11-29T09:07:31.362Z,66.63
2022-11-29T09:10:32.735Z,65.78
2022-11-29T09:13:34.110Z,64.40
2022-11-29T09:16:37.668Z,61.28
2022-11-29T09:19:39.042Z,60.80
2022-11-29T09:22:43.132Z,66.47
2022-11-29T09:25:48.607Z,63.55
2022-11-29T09:28:50.052Z,66.28
2022-11-29T09:31:51.475Z,69.45
2022-11-29T09:34:52.853Z,61.88
2022-11-29T09:37:54.240Z,60.17
2022-11-29T09:40:59.664Z,66.13
2022-11-29T09:44:12.244Z,67.40
2022-11-29T09:47:51.345Z,60.55
2022-11-29T09:51:17.840Z,66.78
2022-11-29T09:54:27.965Z,62.38
2022-11-29T09:57:31.213Z,71.35
2022-11-29T10:00:37.939Z,64.68
2022-11-29T10:03:48.676Z,65.30
2022-11-29T10:07:06.492Z,68.20
2022-11-29T10:10:13.309Z,70.55
2022-11-29T10:13:44.957Z,69.18
2022-11-29T10:16:52.321Z,62.95
2022-11-29T10:20:10.649Z,62.88
2022-11-29T10:23:33.653Z,67.07
2022-11-29T10:26:35.600Z,69.43
2022-11-29T10:29:38.230Z,65.72
2022-11-29T10:32:39.973Z,64.73
2022-11-29T10:35:41.370Z,57.83
2022-11-29T10:38:45.707Z,57.10
2022-11-29T10:41:51.732Z,60.00
2022-11-29T10:44:53.094Z,59.67
2022-11-29T10:48:02.614Z,60.38
2022-11-29T10:51:15.961Z,59.25
2022-11-29T10:54:47.860Z,55.78
2022-11-29T10:58:14.010Z,59.72
2022-11-29T11:01:16.577Z,58.47
2022-11-29T11:04:44.575Z,58.47
2022-11-29T11:07:56.902Z,57.72
2022-11-29T11:11:01.793Z,55.53
2022-11-29T11:14:22.849Z,56.28
2022-11-29T11:17:26.708Z,58.65
2022-11-29T11:20:36.294Z,55.60
2022-11-29T11:24:01.380Z,58.50
2022-11-29T11:27:02.892Z,54.75
2022-11-29T11:30:06.811Z,58.85
2022-11-29T11:33:28.252Z,52.58
2022-11-29T11:36:29.602Z,55.50
2022-11-29T11:39:31.276Z,55.22
2022-11-29T11:42:38.748Z,58.20
2022-11-29T11:45:40.108Z,56.50
2022-11-29T11:48:41.582Z,52.17
2022-11-29T11:51:43.790Z,57.53
2022-11-29T11:54:49.170Z,57.55
2022-11-29T11:58:10.297Z,56.85
2022-11-29T12:01:12.207Z,55.42
2022-11-29T12:04:30.550Z,55.13
2022-11-29T12:11:15.026Z,54.53
2022-11-29T12:14:42.631Z,53.47
2022-11-29T12:17:48.131Z,50.53
2022-11-29T12:20:58.322Z,52.05
2022-11-29T12:24:18.783Z,57.15
2022-11-29T12:27:20.186Z,59.70
2022-11-29T12:30:21.700Z,58.38
2022-11-29T12:33:56.459Z,58.10
2022-11-29T12:37:10.824Z,54.30
2022-11-29T12:40:45.723Z,52.30
2022-11-29T12:43:50.084Z,52.47
2022-11-29T12:47:34.561Z,54.25
2022-11-29T12:50:40.204Z,59.97
2022-11-29T12:54:06.292Z,56.58
2022-11-29T12:57:32.317Z,60.13
2022-11-29T13:00:44.861Z,59.03
2022-11-29T13:04:02.101Z,58.20
2022-11-29T13:07:41.287Z,54.75
2022-11-29T13:11:03.442Z,56.05
2022-11-29T13:14:40.945Z,57.63
2022-11-29T13:17:47.255Z,57.63
2022-11-29T13:21:06.845Z,59.33
2022-11-29T13:24:20.806Z,58.63
2022-11-29T13:27:28.367Z,62.92
2022-11-29T13:30:29.976Z,63.08
2022-11-29T13:33:42.327Z,65.13
2022-11-29T13:37:12.579Z,64.50
2022-11-29T13:40:25.848Z,71.07
2022-11-29T13:44:02.271Z,62.80
2022-11-29T13:47:13.539Z,69.40
2022-11-29T13:50:36.695Z,66.43
2022-11-29T13:53:48.506Z,66.25
2022-11-29T13:57:02.083Z,68.68
2022-11-29T14:00:04.383Z,58.43
2022-11-29T14:03:24.066Z,64.65
2022-11-29T14:06:34.750Z,63.13
2022-11-29T14:09:47.444Z,64.40
2022-11-29T14:12:56.571Z,61.30
2022-11-29T14:16:03.128Z,60.83
2022-11-29T14:19:06.671Z,59.88
2022-11-29T14:22:20.309Z,66.40
2022-11-29T14:28:44.403Z,66.35
2022-11-29T14:31:50.934Z,64.78
2022-11-29T14:35:03.716Z,63.58
2022-11-29T14:38:18.716Z,62.63
2022-11-29T14:41:26.098Z,65.68
2022-11-29T14:44:30.800Z,63.22
2022-11-29T14:47:37.508Z,64.07
2022-11-29T14:50:40.393Z,59.80
2022-11-29T14:53:43.406Z,67.93
2022-11-29T14:56:46.702Z,62.42
2022-11-29T15:03:00.331Z,69.77
2022-11-29T15:06:10.764Z,65.53
2022-11-29T15:09:19.923Z,62.72
2022-11-29T15:12:25.613Z,72.18
2022-11-29T15:15:37.194Z,66.35
2022-11-29T15:18:59.937Z,68.38
2022-11-29T15:22:12.313Z,71.88
2022-11-29T15:25:19.178Z,65.22
2022-11-29T15:28:26.688Z,61.83
2022-11-29T15:31:28.176Z,64.93
2022-11-29T15:34:33.489Z,67.05
2022-11-29T15:37:34.794Z,69.32
2022-11-29T15:40:36.137Z,65.65
2022-11-29T15:43:38.227Z,69.55
2022-11-29T15:46:39.559Z,64.43
2022-11-29T15:49:40.951Z,72.05
2022-11-29T15:52:42.494Z,71.90
2022-11-29T15:55:45.155Z,64.63
2022-11-29T15:58:47.927Z,66.75
2022-11-29T16:01:53.016Z,68.72
2022-11-29T16:05:01.055Z,71.80
2022-11-29T16:08:17.116Z,66.68
2022-11-29T16:11:22.926Z,63.10
2022-11-29T16:14:27.152Z,67.95
2022-11-29T16:17:34.148Z,63.78
2022-11-29T16:20:35.561Z,68.22
2022-11-29T16:23:39.274Z,62.83
2022-11-29T16:26:45.118Z,61.97
2022-11-29T16:29:47.877Z,64.32
2022-11-29T16:32:54.317Z,67.25
2022-11-29T16:36:15.909Z,63.08
2022-11-29T16:39:23.688Z,67.13
2022-11-29T16:42:27.814Z,70.30
2022-11-29T16:45:42.496Z,71.28
2022-11-29T16:48:43.929Z,70.93
2022-11-29T16:51:46.766Z,68.90
2022-11-29T16:54:48.595Z,66.88
2022-11-29T16:57:50.124Z,68.53
2022-11-29T17:00:51.518Z,69.15
2022-11-29T17:03:53.722Z,71.75
2022-11-29T17:06:56.197Z,65.45
2022-11-29T17:09:58.158Z,69.80
2022-11-29T17:12:59.535Z,68.80
2022-11-29T17:16:00.872Z,68.20
2022-11-29T17:19:02.195Z,64.45
2022-11-29T17:22:03.564Z,65.90
2022-11-29T17:25:05.372Z,67.47
2022-11-29T17:28:06.719Z,73.57
2022-11-29T17:31:15.603Z,69.28
2022-11-29T17:34:17.027Z,63.80
2022-11-29T17:37:18.429Z,67.45
2022-11-29T17:40:19.762Z,67.70
2022-11-29T17:43:21.104Z,67.18
2022-11-29T17:46:28.422Z,66.43
2022-11-29T17:49:29.791Z,62.70
2022-11-29T17:52:31.116Z,70.15
2022-11-29T17:55:32.458Z,68.97
2022-11-29T17:58:34.410Z,70.15
2022-11-29T18:01:36.384Z,70.82
2022-11-29T18:04:37.777Z,63.75
2022-11-29T18:07:39.153Z,68.70
2022-11-29T18:10:40.503Z,64.78
2022-11-29T18:13:42.178Z,69.75
2022-11-29T18:16:43.638Z,65.20
2022-11-29T18:19:45.155Z,73.25
2022-11-29T18:22:46.633Z,68.75
2022-11-29T18:25:59.289Z,69.55
2022-11-29T18:29:00.994Z,65.37
2022-11-29T18:32:02.355Z,68.50
2022-11-29T18:35:04.107Z,68.93
2022-11-29T18:38:20.685Z,71.53
2022-11-29T18:41:23.399Z,71.93
2022-11-29T18:44:24.816Z,75.22
2022-11-29T18:47:26.155Z,74.68
2022-11-29T18:50:27.491Z,80.90
2022-11-29T18:53:28.852Z,76.10
2022-11-29T18:56:32.864Z,75.90
2022-11-29T18:59:34.220Z,73.40
2022-11-29T19:02:35.635Z,75.53
2022-11-29T19:05:37.060Z,79.32
2022-11-29T19:08:38.719Z,83.38
2022-11-29T19:11:40.391Z,81.10
2022-11-29T19:14:46.525Z,80.15
2022-11-29T19:17:50.889Z,73.00
2022-11-29T19:20:52.286Z,85.30
2022-11-29T19:23:59.298Z,82.18
2022-11-29T19:27:00.661Z,75.20
2022-11-29T19:30:02.837Z,78.80
2022-11-29T19:33:04.300Z,85.75
2022-11-29T19:36:11.269Z,78.50
2022-11-29T19:39:14.961Z,83.60
2022-11-29T19:42:16.317Z,83.15
2022-11-29T19:45:18.373Z,78.68
2022-11-29T19:48:19.905Z,78.90
2022-11-29T19:51:22.316Z,83.40
2022-11-29T19:54:23.675Z,81.05
2022-11-29T19:57:25.037Z,83.75
2022-11-29T20:00:26.386Z,90.55
2022-11-29T20:03:29.626Z,82.75
2022-11-29T20:06:31.270Z,81.78
2022-11-29T20:09:33.031Z,87.72
2022-11-29T20:12:34.452Z,89.72
2022-11-29T20:15:35.825Z,84.50
2022-11-29T20:18:40.188Z,85.70
2022-11-29T20:21:44.244Z,86.90
2022-11-29T20:24:45.885Z,81.90
2022-11-29T20:27:47.250Z,82.00
2022-11-29T20:30:48.627Z,89.00
2022-11-29T20:33:52.601Z,73.82
2022-11-29T20:37:12.359Z,83.55
2022-11-29T20:40:26.077Z,84.65
2022-11-29T20:43:50.199Z,79.55
2022-11-29T20:46:51.724Z,82.88
2022-11-29T20:49:53.773Z,92.60
2022-11-29T20:53:24.605Z,88.57
2022-11-29T20:56:26.005Z,82.55
2022-11-29T21:02:30.712Z,84.47
2022-11-29T21:05:32.153Z,85.95
2022-11-29T21:08:34.097Z,75.25
2022-11-29T21:11:35.829Z,76.65
2022-11-29T21:14:37.442Z,83.53
2022-11-29T21:17:39.525Z,86.50
2022-11-29T21:20:42.067Z,83.15
2022-11-29T21:23:49.546Z,84.80
2022-11-29T21:26:51.961Z,83.72
2022-11-29T21:29:53.821Z,80.35
2022-11-29T21:32:55.467Z,77.63
2022-11-29T21:35:57.736Z,80.88
2022-11-29T21:39:03.629Z,77.68
2022-11-29T21:42:06.531Z,85.45
2022-11-29T21:45:14.872Z,84.78
2022-11-29T21:48:17.078Z,84.53
2022-11-29T21:51:19.171Z,77.90
2022-11-29T21:54:20.546Z,83.68
2022-11-29T21:57:21.892Z,80.40
2022-11-29T22:00:23.512Z,81.72
2022-11-29T22:03:24.851Z,80.93
2022-11-29T22:06:26.336Z,79.75
2022-11-29T22:09:27.723Z,80.43
2022-11-29T22:12:36.223Z,90.43
2022-11-29T22:15:37.579Z,83.95
2022-11-29T22:18:38.921Z,79.13
2022-11-29T22:21:41.581Z,80.28
2022-11-29T22:24:42.923Z,83.20
2022-11-29T22:27:44.252Z,76.82
2022-11-29T22:30:45.585Z,82.80
2022-11-29T22:33:46.933Z,77.55
2022-11-29T22:36:48.421Z,83.25
2022-11-29T22:39:49.737Z,78.30
2022-11-29T22:42:51.923Z,78.47
2022-11-29T22:45:53.253Z,80.90
2022-11-29T22:48:56.340Z,73.18
2022-11-29T22:51:57.689Z,80.07
2022-11-29T22:55:04.482Z,83.72
2022-11-29T22:58:06.465Z,81.57
2022-11-29T23:01:13.353Z,86.47
2022-11-29T23:04:14.754Z,81.13
2022-11-29T23:07:16.084Z,81.18
2022-11-29T23:10:17.432Z,88.43
2022-11-29T23:13:18.759Z,88.75
2022-11-29T23:16:22.684Z,85.50
2022-11-29T23:19:24.051Z,87.57
2022-11-29T23:22:25.406Z,81.55
2022-11-29T23:25:26.731Z,81.13
2022-11-29T23:28:28.805Z,85.55
2022-11-29T23:31:30.174Z,76.60
2022-11-29T23:34:31.531Z,85.82
2022-11-29T23:37:32.859Z,78.78
2022-11-29T23:40:34.502Z,83.97
2022-11-29T23:43:37.840Z,79.88
2022-11-29T23:49:40.464Z,78.72
2022-11-29T23:52:41.797Z,86.70
2022-11-29T23:55:43.222Z,79.53
2022-11-29T23:58:45.108Z,80.65
